createdAt,value
2022-11-10T00:00:27.408Z,100.00
2022-11-10T00:03:17.301Z,100.00
2022-11-10T00:06:08.531Z,100.00
2022-11-10T00:08:58.906Z,100.00
2022-11-10T00:11:49.639Z,100.00
2022-11-10T00:14:57.644Z,100.00
2022-11-10T00:17:47.918Z,100.00
2022-11-10T00:20:38.317Z,100.00
2022-11-10T00:23:28.672Z,100.00
2022-11-10T00:26:19.687Z,100.00
2022-11-10T00:29:09.850Z,100.00
2022-11-10T00:31:59.804Z,100.00
2022-11-10T00:34:49.606Z,100.00
2022-11-10T00:37:39.907Z,100.00
2022-11-10T00:40:30.207Z,100.00
2022-11-10T00:43:25.330Z,100.00
2022-11-10T00:46:16.742Z,100.00
2022-11-10T00:49:07.162Z,100.00
2022-11-10T00:51:57.560Z,100.00
2022-11-10T00:54:47.552Z,100.00
2022-11-10T00:57:37.895Z,100.00
2022-11-10T01:00:28.227Z,100.00
2022-11-10T01:03:18.908Z,100.00
2022-11-10T01:06:10.584Z,100.00
2022-11-10T01:09:01.077Z,100.00
2022-11-10T01:11:51.249Z,100.00
2022-11-10T01:14:41.695Z,100.00
2022-11-10T01:17:32.455Z,100.00
2022-11-10T01:20:23.106Z,100.00
2022-11-10T01:23:14.145Z,100.00
2022-11-10T01:26:05.549Z,100.00
2022-11-10T01:28:56.169Z,100.00
2022-11-10T01:31:46.493Z,100.00
2022-11-10T01:34:37.337Z,100.00
2022-11-10T01:37:27.795Z,100.00
2022-11-10T01:40:18.679Z,100.00
2022-11-10T01:43:10.481Z,100.00
2022-11-10T01:46:05.633Z,100.00
2022-11-10T01:48:57.182Z,100.00
2022-11-10T01:51:49.268Z,100.00
2022-11-10T01:54:40.892Z,100.00
2022-11-10T01:57:31.335Z,100.00
2022-11-10T02:00:21.673Z,100.00
2022-11-10T02:03:13.686Z,100.00
2022-11-10T02:06:04.418Z,100.00
2022-11-10T02:08:54.936Z,100.00
2022-11-10T02:11:45.301Z,100.00
2022-11-10T02:14:35.071Z,100.00
2022-11-10T02:17:25.231Z,100.00
2022-11-10T02:20:17.400Z,100.00
2022-11-10T02:23:36.651Z,100.00
2022-11-10T02:26:29.034Z,100.00
2022-11-10T02:29:17.290Z,100.00
2022-11-10T02:32:07.833Z,100.00
2022-11-10T02:34:57.736Z,100.00
2022-11-10T02:37:47.749Z,100.00
2022-11-10T02:40:38.159Z,100.00
2022-11-10T02:43:28.525Z,100.00
2022-11-10T02:46:19.308Z,100.00
2022-11-10T02:49:09.834Z,100.00
2022-11-10T02:52:00.582Z,100.00
2022-11-10T02:54:50.713Z,100.00
2022-11-10T02:57:40.903Z,100.00
2022-11-10T03:00:31.485Z,100.00
2022-11-10T03:03:21.857Z,100.00
2022-11-10T03:06:12.248Z,100.00
2022-11-10T03:09:02.643Z,100.00
2022-11-10T03:11:53.202Z,100.00
2022-11-10T03:14:43.358Z,100.00
2022-11-10T03:17:33.829Z,100.00
2022-11-10T03:20:24.275Z,100.00
2022-11-10T03:23:14.480Z,100.00
2022-11-10T03:26:06.467Z,100.00
2022-11-10T03:28:56.363Z,100.00
2022-11-10T03:31:46.637Z,100.00
2022-11-10T03:34:36.812Z,100.00
2022-11-10T03:37:27.329Z,100.00
2022-11-10T03:40:18.420Z,100.00
2022-11-10T03:43:08.895Z,100.00
2022-11-10T03:45:59.220Z,100.00
2022-11-10T03:48:53.534Z,100.00
2022-11-10T03:51:43.787Z,100.00
2022-11-10T03:54:33.704Z,100.00
2022-11-10T03:57:23.893Z,100.00
2022-11-10T04:00:15.843Z,100.00
2022-11-10T04:03:06.093Z,100.00
2022-11-10T04:06:25.534Z,100.00
2022-11-10T04:09:15.624Z,100.00
2022-11-10T04:12:25.145Z,100.00
2022-11-10T04:15:33.414Z,100.00
2022-11-10T04:18:24.928Z,100.00
2022-11-10T04:21:13.802Z,100.00
2022-11-10T04:24:04.500Z,100.00
2022-11-10T04:26:54.471Z,100.00
2022-11-10T04:29:44.381Z,100.00
2022-11-10T04:32:34.846Z,100.00
2022-11-10T04:35:24.874Z,100.00
2022-11-10T04:38:14.719Z,100.00
2022-11-10T04:41:04.974Z,100.00
2022-11-10T04:43:55.421Z,100.00
2022-11-10T04:46:45.712Z,100.00
2022-11-10T04:49:36.365Z,100.00
2022-11-10T04:52:26.270Z,100.00
2022-11-10T04:55:16.887Z,100.00
2022-11-10T04:58:07.514Z,100.00
2022-11-10T05:00:58.397Z,100.00
2022-11-10T05:03:49.719Z,100.00
2022-11-10T05:06:40.916Z,100.00
2022-11-10T05:09:31.150Z,100.00
2022-11-10T05:12:22.469Z,100.00
2022-11-10T05:15:14.028Z,100.00
2022-11-10T05:18:04.013Z,100.00
2022-11-10T05:20:54.206Z,100.00
2022-11-10T05:23:44.831Z,100.00
2022-11-10T05:26:35.455Z,100.00
2022-11-10T05:29:26.205Z,100.00
2022-11-10T05:32:16.313Z,100.00
2022-11-10T05:35:07.090Z,100.00
2022-11-10T05:37:57.401Z,100.00
2022-11-10T05:40:47.634Z,100.00
2022-11-10T05:43:37.925Z,100.00
2022-11-10T05:46:28.472Z,100.00
2022-11-10T05:49:18.718Z,100.00
2022-11-10T05:52:09.054Z,100.00
2022-11-10T05:54:59.428Z,100.00
2022-11-10T05:57:50.532Z,100.00
2022-11-10T06:00:41.165Z,100.00
2022-11-10T06:03:31.345Z,100.00
2022-11-10T06:06:23.401Z,100.00
2022-11-10T06:09:13.993Z,100.00
2022-11-10T06:12:05.079Z,100.00
2022-11-10T06:14:55.482Z,100.00
2022-11-10T06:17:46.577Z,100.00
2022-11-10T06:20:36.827Z,100.00
2022-11-10T06:23:27.299Z,100.00
2022-11-10T06:26:18.159Z,100.00
2022-11-10T06:29:08.837Z,100.00
2022-11-10T06:31:59.188Z,100.00
2022-11-10T06:34:49.348Z,100.00
2022-11-10T06:37:40.178Z,100.00
2022-11-10T06:40:30.893Z,100.00
2022-11-10T06:43:21.514Z,100.00
2022-11-10T06:46:11.984Z,100.00
2022-11-10T06:49:03.186Z,100.00
2022-11-10T06:51:53.664Z,100.00
2022-11-10T06:54:44.136Z,100.00
2022-11-10T06:57:40.645Z,100.00
2022-11-10T07:00:31.162Z,100.00
2022-11-10T07:03:22.157Z,100.00
2022-11-10T07:06:12.952Z,100.00
2022-11-10T07:09:03.185Z,100.00
2022-11-10T07:11:53.324Z,100.00
2022-11-10T07:14:43.814Z,100.00
2022-11-10T07:17:33.804Z,100.00
2022-11-10T07:20:26.333Z,100.00
2022-11-10T07:23:16.424Z,100.00
2022-11-10T07:26:07.537Z,100.00
2022-11-10T07:28:57.609Z,100.00
2022-11-10T07:31:48.379Z,100.00
2022-11-10T07:34:38.932Z,100.00
2022-11-10T07:37:29.385Z,100.00
2022-11-10T07:40:19.589Z,100.00
2022-11-10T07:43:09.385Z,100.00
2022-11-10T07:46:00.924Z,100.00
2022-11-10T07:48:51.532Z,100.00
2022-11-10T07:51:41.915Z,100.00
2022-11-10T07:54:32.436Z,100.00
2022-11-10T07:57:22.876Z,100.00
2022-11-10T08:00:16.974Z,100.00
2022-11-10T08:03:08.558Z,100.00
2022-11-10T08:05:58.829Z,100.00
2022-11-10T08:08:51.038Z,100.00
2022-11-10T08:11:42.145Z,100.00
2022-11-10T08:14:33.352Z,100.00
2022-11-10T08:17:23.769Z,100.00
2022-11-10T08:20:15.274Z,100.00
2022-11-10T08:23:06.196Z,100.00
2022-11-10T08:25:59.034Z,100.00
2022-11-10T08:28:49.291Z,100.00
2022-11-10T08:31:40.228Z,100.00
2022-11-10T08:34:30.350Z,99.66
2022-11-10T08:37:21.131Z,99.97
2022-11-10T08:40:13.606Z,100.00
2022-11-10T08:43:04.606Z,96.54
2022-11-10T08:45:57.283Z,94.03
2022-11-10T08:48:48.084Z,96.37
2022-11-10T08:51:39.438Z,93.25
2022-11-10T08:54:30.791Z,93.57
2022-11-10T08:57:21.232Z,93.47
2022-11-10T09:00:14.268Z,93.87
2022-11-10T09:03:08.472Z,90.43
2022-11-10T09:06:00.379Z,90.32
2022-11-10T09:08:50.705Z,88.93
2022-11-10T09:11:41.445Z,89.07
2022-11-10T09:14:32.006Z,86.39
2022-11-10T09:17:22.577Z,85.23
2022-11-10T09:20:13.969Z,85.75
2022-11-10T09:23:07.206Z,87.96
2022-11-10T09:25:57.837Z,87.47
2022-11-10T09:28:48.040Z,88.17
2022-11-10T09:31:38.206Z,87.84
2022-11-10T09:34:28.646Z,84.14
2022-11-10T09:37:19.012Z,85.30
2022-11-10T09:40:12.983Z,85.11
2022-11-10T09:43:03.403Z,85.64
2022-11-10T09:45:54.141Z,85.47
2022-11-10T09:48:47.114Z,83.72
2022-11-10T09:51:44.027Z,81.96
2022-11-10T09:54:40.774Z,82.32
2022-11-10T09:57:31.291Z,81.97
2022-11-10T10:00:22.425Z,81.63
2022-11-10T10:03:15.585Z,81.49
2022-11-10T10:06:08.706Z,81.47
2022-11-10T10:09:05.396Z,82.26
2022-11-10T10:12:02.040Z,80.74
2022-11-10T10:15:10.531Z,80.19
2022-11-10T10:18:10.903Z,79.18
2022-11-10T10:21:14.657Z,79.92
2022-11-10T10:24:11.354Z,80.01
2022-11-10T10:27:05.064Z,78.30
2022-11-10T10:29:55.186Z,78.75
2022-11-10T10:32:45.510Z,79.08
2022-11-10T10:35:41.429Z,78.85
2022-11-10T10:38:34.048Z,78.33
2022-11-10T10:41:26.837Z,77.17
2022-11-10T10:44:19.224Z,76.72
2022-11-10T10:47:09.611Z,75.13
2022-11-10T10:50:10.838Z,73.37
2022-11-10T10:53:17.433Z,71.76
2022-11-10T10:56:18.377Z,66.84
2022-11-10T10:59:11.498Z,66.31
2022-11-10T11:02:01.695Z,66.59
2022-11-10T11:04:52.086Z,65.67
2022-11-10T11:07:42.307Z,66.13
2022-11-10T11:10:33.605Z,66.50
2022-11-10T11:13:25.783Z,67.58
2022-11-10T11:16:16.178Z,66.48
2022-11-10T11:19:06.368Z,65.84
2022-11-10T11:22:03.817Z,66.36
2022-11-10T11:24:58.963Z,65.51
2022-11-10T11:27:54.840Z,64.11
2022-11-10T11:30:51.098Z,63.15
2022-11-10T11:33:44.711Z,64.22
2022-11-10T11:36:38.508Z,61.90
2022-11-10T11:39:36.292Z,62.47
2022-11-10T11:42:34.619Z,63.51
2022-11-10T11:45:28.142Z,62.90
2022-11-10T11:48:34.793Z,62.64
2022-11-10T11:51:28.379Z,62.75
2022-11-10T11:54:38.663Z,62.32
2022-11-10T11:57:38.675Z,61.48
2022-11-10T12:00:30.645Z,60.32
2022-11-10T12:03:40.491Z,60.10
2022-11-10T12:06:36.182Z,58.85
2022-11-10T12:09:31.296Z,57.08
2022-11-10T12:12:30.309Z,56.94
2022-11-10T12:15:28.228Z,56.90
2022-11-10T12:18:23.458Z,57.36
2022-11-10T12:21:26.277Z,58.01
2022-11-10T12:24:26.016Z,57.03
2022-11-10T12:27:18.029Z,56.21
2022-11-10T12:30:12.348Z,55.98
2022-11-10T12:33:05.643Z,54.93
2022-11-10T12:35:56.566Z,55.18
2022-11-10T12:38:59.646Z,56.33
2022-11-10T12:41:51.358Z,56.01
2022-11-10T12:44:44.808Z,55.41
2022-11-10T12:47:38.273Z,55.30
2022-11-10T12:50:42.848Z,55.99
2022-11-10T12:53:34.264Z,57.03
2022-11-10T12:56:26.007Z,57.34
2022-11-10T12:59:28.774Z,57.31
2022-11-10T13:02:26.960Z,57.62
2022-11-10T13:05:32.449Z,57.93
2022-11-10T13:08:27.658Z,57.26
2022-11-10T13:11:36.607Z,57.70
2022-11-10T13:14:31.538Z,57.92
2022-11-10T13:18:02.037Z,57.89
2022-11-10T13:20:56.289Z,57.65
2022-11-10T13:24:22.555Z,58.29
2022-11-10T13:27:15.123Z,59.63
2022-11-10T13:30:05.420Z,59.98
2022-11-10T13:32:55.748Z,60.31
2022-11-10T13:35:55.486Z,60.48
2022-11-10T13:38:46.886Z,60.67
2022-11-10T13:41:44.164Z,60.71
2022-11-10T13:44:36.436Z,61.10
2022-11-10T13:47:54.392Z,61.44
2022-11-10T13:50:50.293Z,62.08
2022-11-10T13:53:46.558Z,62.86
2022-11-10T13:56:47.328Z,64.00
2022-11-10T13:59:45.711Z,65.47
2022-11-10T14:03:02.582Z,65.80
2022-11-10T14:06:07.833Z,67.71
2022-11-10T14:09:01.011Z,69.86
2022-11-10T14:11:54.237Z,71.66
2022-11-10T14:14:50.325Z,73.30
2022-11-10T14:17:43.549Z,75.17
2022-11-10T14:20:40.312Z,76.50
2022-11-10T14:23:33.386Z,77.96
2022-11-10T14:26:28.889Z,78.78
2022-11-10T14:29:40.355Z,79.40
2022-11-10T14:32:30.800Z,80.19
2022-11-10T14:35:25.095Z,80.21
2022-11-10T14:38:21.969Z,80.19
2022-11-10T14:41:18.014Z,80.29
2022-11-10T14:44:09.293Z,79.57
2022-11-10T14:47:02.995Z,79.37
2022-11-10T14:50:09.476Z,79.78
2022-11-10T14:53:02.726Z,80.71
2022-11-10T14:55:54.974Z,81.17
2022-11-10T14:58:45.496Z,80.98
2022-11-10T15:01:38.600Z,80.86
2022-11-10T15:04:30.631Z,81.16
2022-11-10T15:07:21.275Z,82.06
2022-11-10T15:10:17.852Z,82.29
2022-11-10T15:13:16.637Z,82.00
2022-11-10T15:16:27.007Z,81.74
2022-11-10T15:19:24.965Z,81.52
2022-11-10T15:22:20.099Z,82.13
2022-11-10T15:25:14.987Z,83.15
2022-11-10T15:28:08.377Z,83.96
2022-11-10T15:30:59.977Z,84.03
2022-11-10T15:33:51.154Z,83.81
2022-11-10T15:36:42.039Z,83.70
2022-11-10T15:39:32.026Z,84.09
2022-11-10T15:42:23.005Z,84.80
2022-11-10T15:45:13.505Z,85.58
2022-11-10T15:48:03.619Z,86.09
2022-11-10T15:50:54.573Z,85.88
2022-11-10T15:53:46.434Z,85.36
2022-11-10T15:56:36.217Z,85.13
2022-11-10T15:59:26.515Z,84.83
2022-11-10T16:02:24.430Z,84.37
2022-11-10T16:05:15.518Z,84.11
2022-11-10T16:08:07.067Z,84.60
2022-11-10T16:10:57.473Z,85.41
2022-11-10T16:13:47.692Z,85.90
2022-11-10T16:16:37.758Z,86.06
2022-11-10T16:19:28.268Z,86.03
2022-11-10T16:22:18.810Z,85.87
2022-11-10T16:25:12.575Z,85.53
2022-11-10T16:28:07.189Z,85.44
2022-11-10T16:30:57.550Z,86.24
2022-11-10T16:33:47.761Z,87.38
2022-11-10T16:36:37.941Z,87.98
2022-11-10T16:39:30.047Z,88.13
2022-11-10T16:42:21.144Z,88.02
2022-11-10T16:45:16.932Z,88.11
2022-11-10T16:48:08.121Z,88.05
2022-11-10T16:50:59.543Z,88.06
2022-11-10T16:53:56.387Z,88.47
2022-11-10T16:56:46.907Z,89.49
2022-11-10T16:59:37.964Z,90.17
2022-11-10T17:02:30.910Z,90.23
2022-11-10T17:05:21.782Z,89.97
2022-11-10T17:08:17.414Z,89.75
2022-11-10T17:11:08.304Z,89.46
2022-11-10T17:13:58.562Z,89.42
2022-11-10T17:16:49.671Z,89.99
2022-11-10T17:19:39.680Z,91.03
2022-11-10T17:22:30.880Z,92.28
2022-11-10T17:25:25.052Z,92.24
2022-11-10T17:28:16.730Z,92.86
2022-11-10T17:31:05.736Z,92.82
2022-11-10T17:33:56.797Z,92.68
2022-11-10T17:36:47.147Z,92.91
2022-11-10T17:39:37.495Z,93.91
2022-11-10T17:42:28.200Z,94.68
2022-11-10T17:45:21.735Z,95.08
2022-11-10T17:48:11.964Z,95.24
2022-11-10T17:51:02.510Z,95.48
2022-11-10T17:53:53.712Z,95.75
2022-11-10T17:56:44.415Z,96.57
2022-11-10T17:59:34.456Z,97.56
2022-11-10T18:02:25.111Z,98.71
2022-11-10T18:05:16.356Z,99.35
2022-11-10T18:08:07.134Z,99.79
2022-11-10T18:10:57.654Z,99.90
2022-11-10T18:13:48.053Z,99.79
2022-11-10T18:16:38.847Z,99.88
2022-11-10T18:19:29.023Z,100.00
2022-11-10T18:22:19.195Z,100.00
2022-11-10T18:25:11.008Z,100.00
2022-11-10T18:28:01.547Z,100.00
2022-11-10T18:30:52.071Z,100.00
2022-11-10T18:33:42.032Z,100.00
2022-11-10T18:36:32.532Z,100.00
2022-11-10T18:39:22.750Z,100.00
2022-11-10T18:42:13.739Z,100.00
2022-11-10T18:45:03.789Z,100.00
2022-11-10T18:47:53.926Z,100.00
2022-11-10T18:50:44.285Z,100.00
2022-11-10T18:53:38.222Z,100.00
2022-11-10T18:56:28.625Z,100.00
2022-11-10T18:59:18.959Z,100.00
2022-11-10T19:02:09.931Z,100.00
2022-11-10T19:05:00.583Z,100.00
2022-11-10T19:07:50.924Z,100.00
2022-11-10T19:10:44.625Z,100.00
2022-11-10T19:13:35.222Z,100.00
2022-11-10T19:16:25.884Z,100.00
2022-11-10T19:19:16.427Z,100.00
2022-11-10T19:22:06.695Z,100.00
2022-11-10T19:25:08.134Z,100.00
2022-11-10T19:27:59.337Z,100.00
2022-11-10T19:30:49.783Z,100.00
2022-11-10T19:33:41.077Z,100.00
2022-11-10T19:36:31.552Z,100.00
2022-11-10T19:39:21.984Z,100.00
2022-11-10T19:42:12.437Z,100.00
2022-11-10T19:45:02.577Z,100.00
2022-11-10T19:47:53.142Z,100.00
2022-11-10T19:50:48.261Z,100.00
2022-11-10T19:53:40.050Z,100.00
2022-11-10T19:56:31.946Z,100.00
2022-11-10T19:59:22.667Z,100.00
2022-11-10T20:02:13.817Z,100.00
2022-11-10T20:05:16.690Z,100.00
2022-11-10T20:08:12.593Z,100.00
2022-11-10T20:11:04.254Z,100.00
2022-11-10T20:13:55.511Z,100.00
2022-11-10T20:16:46.288Z,100.00
2022-11-10T20:19:40.824Z,100.00
2022-11-10T20:22:31.670Z,100.00
2022-11-10T20:25:22.111Z,100.00
2022-11-10T20:28:14.531Z,100.00
2022-11-10T20:31:05.102Z,100.00
2022-11-10T20:33:55.659Z,100.00
2022-11-10T20:36:46.310Z,100.00
2022-11-10T20:39:36.935Z,100.00
2022-11-10T20:42:27.014Z,100.00
2022-11-10T20:45:17.563Z,100.00
2022-11-10T20:48:07.913Z,100.00
2022-11-10T20:50:57.806Z,100.00
2022-11-10T20:53:47.999Z,100.00
2022-11-10T20:56:38.356Z,100.00
2022-11-10T20:59:28.825Z,100.00
2022-11-10T21:02:19.263Z,100.00
2022-11-10T21:05:10.592Z,100.00
2022-11-10T21:08:01.114Z,100.00
2022-11-10T21:10:54.218Z,100.00
2022-11-10T21:13:44.802Z,100.00
2022-11-10T21:16:34.978Z,100.00
2022-11-10T21:19:26.036Z,100.00
2022-11-10T21:22:16.154Z,100.00
2022-11-10T21:25:07.367Z,100.00
2022-11-10T21:27:57.423Z,100.00
2022-11-10T21:30:47.890Z,100.00
2022-11-10T21:33:38.270Z,100.00
2022-11-10T21:36:29.900Z,100.00
2022-11-10T21:39:19.905Z,100.00
2022-11-10T21:42:10.482Z,100.00
2022-11-10T21:45:01.169Z,100.00
2022-11-10T21:47:51.479Z,100.00
2022-11-10T21:50:41.645Z,100.00
2022-11-10T21:53:32.298Z,100.00
2022-11-10T21:56:22.749Z,100.00
2022-11-10T21:59:13.009Z,100.00
2022-11-10T22:02:03.437Z,100.00
2022-11-10T22:04:54.341Z,100.00
2022-11-10T22:07:45.159Z,100.00
2022-11-10T22:10:58.633Z,100.00
2022-11-10T22:14:06.483Z,100.00
2022-11-10T22:17:15.514Z,100.00
2022-11-10T22:20:06.462Z,100.00
2022-11-10T22:22:57.252Z,100.00
2022-11-10T22:25:47.593Z,100.00
2022-11-10T22:28:38.118Z,100.00
2022-11-10T22:31:28.611Z,100.00
2022-11-10T22:34:19.227Z,100.00
2022-11-10T22:37:09.927Z,100.00
2022-11-10T22:40:18.234Z,100.00
2022-11-10T22:43:26.861Z,100.00
2022-11-10T22:46:17.470Z,100.00
2022-11-10T22:49:10.465Z,100.00
2022-11-10T22:52:00.597Z,100.00
2022-11-10T22:54:50.657Z,100.00
2022-11-10T22:57:41.605Z,100.00
2022-11-10T23:00:31.681Z,100.00
2022-11-10T23:03:22.468Z,100.00
2022-11-10T23:06:13.125Z,100.00
2022-11-10T23:09:03.847Z,100.00
2022-11-10T23:11:54.607Z,100.00
2022-11-10T23:14:45.168Z,100.00
2022-11-10T23:17:35.780Z,100.00
2022-11-10T23:20:26.606Z,100.00
2022-11-10T23:23:17.386Z,100.00
2022-11-10T23:26:09.546Z,100.00
2022-11-10T23:28:59.524Z,100.00
2022-11-10T23:31:50.924Z,100.00
2022-11-10T23:34:41.056Z,100.00
2022-11-10T23:37:31.484Z,100.00
2022-11-10T23:40:21.954Z,100.00
2022-11-10T23:43:12.369Z,100.00
2022-11-10T23:46:07.161Z,100.00
2022-11-10T23:48:58.039Z,100.00
2022-11-10T23:51:48.562Z,100.00
2022-11-10T23:54:38.700Z,100.00
2022-11-10T23:57:29.541Z,100.00
